createdAt,value
2022-11-03T00:00:13.709Z,1016.49
2022-11-03T00:01:13.855Z,1016.44
2022-11-03T00:02:13.304Z,1016.49
2022-11-03T00:03:13.699Z,1016.50
2022-11-03T00:04:13.622Z,1016.52
2022-11-03T00:05:13.599Z,1016.55
2022-11-03T00:06:13.517Z,1016.46
2022-11-03T00:07:13.306Z,1016.47
2022-11-03T00:08:13.229Z,1016.47
2022-11-03T00:09:22.941Z,1016.52
2022-11-03T00:10:12.985Z,1016.53
2022-11-03T00:11:12.962Z,1016.54
2022-11-03T00:12:13.005Z,1016.55
2022-11-03T00:13:13.198Z,1016.54
2022-11-03T00:14:13.071Z,1016.55
2022-11-03T00:15:12.961Z,1016.57
2022-11-03T00:16:12.893Z,1016.54
2022-11-03T00:17:13.781Z,1016.49
2022-11-03T00:18:13.756Z,1016.52
2022-11-03T00:19:13.761Z,1016.44
2022-11-03T00:20:13.630Z,1016.51
2022-11-03T00:21:13.586Z,1016.48
2022-11-03T00:22:13.658Z,1016.53
2022-11-03T00:23:13.648Z,1016.47
2022-11-03T00:24:13.555Z,1016.51
2022-11-03T00:25:13.546Z,1016.49
2022-11-03T00:26:13.461Z,1016.47
2022-11-03T00:27:13.387Z,1016.48
2022-11-03T00:28:13.466Z,1016.48
2022-11-03T00:29:13.629Z,1016.47
2022-11-03T00:30:13.461Z,1016.47
2022-11-03T00:31:13.537Z,1016.50
2022-11-03T00:32:13.399Z,1016.52
2022-11-03T00:33:13.269Z,1016.55
2022-11-03T00:34:13.370Z,1016.53
2022-11-03T00:35:13.223Z,1016.49
2022-11-03T00:36:13.230Z,1016.50
2022-11-03T00:37:13.273Z,1016.48
2022-11-03T00:38:13.167Z,1016.44
2022-11-03T00:39:13.465Z,1016.46
2022-11-03T00:40:13.336Z,1016.38
2022-11-03T00:41:13.562Z,1016.45
2022-11-03T00:42:13.590Z,1016.40
2022-11-03T00:43:27.689Z,1016.42
2022-11-03T00:44:14.015Z,1016.38
2022-11-03T00:45:13.036Z,1016.35
2022-11-03T00:46:12.962Z,1016.35
2022-11-03T00:47:13.265Z,1016.35
2022-11-03T00:48:13.433Z,1016.34
2022-11-03T00:49:13.723Z,1016.37
2022-11-03T00:50:13.606Z,1016.32
2022-11-03T00:51:13.523Z,1016.32
2022-11-03T00:52:18.579Z,1016.37
2022-11-03T00:53:13.851Z,1016.29
2022-11-03T00:54:14.072Z,1016.29
2022-11-03T00:55:12.978Z,1016.37
2022-11-03T00:56:18.023Z,1016.29
2022-11-03T00:57:13.062Z,1016.29
2022-11-03T00:58:12.982Z,1016.31
2022-11-03T00:59:13.143Z,1016.29
2022-11-03T01:00:13.221Z,1016.32
2022-11-03T01:01:13.757Z,1016.30
2022-11-03T01:02:14.028Z,1016.29
2022-11-03T01:03:13.195Z,1016.27
2022-11-03T01:04:13.414Z,1016.29
2022-11-03T01:05:13.319Z,1016.28
2022-11-03T01:06:13.148Z,1016.21
2022-11-03T01:07:13.084Z,1016.24
2022-11-03T01:08:13.040Z,1016.21
2022-11-03T01:09:13.217Z,1016.24
2022-11-03T01:10:13.395Z,1016.21
2022-11-03T01:11:13.740Z,1016.21
2022-11-03T01:12:13.607Z,1016.26
2022-11-03T01:13:13.579Z,1016.23
2022-11-03T01:14:13.645Z,1016.19
2022-11-03T01:15:13.481Z,1016.24
2022-11-03T01:16:13.731Z,1016.25
2022-11-03T01:17:13.933Z,1016.19
2022-11-03T01:18:13.081Z,1016.18
2022-11-03T01:19:13.112Z,1016.18
2022-11-03T01:20:13.012Z,1016.16
2022-11-03T01:21:13.160Z,1016.17
2022-11-03T01:22:12.985Z,1016.09
2022-11-03T01:23:13.355Z,1016.16
2022-11-03T01:24:13.716Z,1016.11
2022-11-03T01:25:13.598Z,1016.09
2022-11-03T01:26:13.601Z,1016.10
2022-11-03T01:27:13.529Z,1016.08
2022-11-03T01:28:13.328Z,1016.10
2022-11-03T01:29:13.183Z,1016.11
2022-11-03T01:30:13.099Z,1016.11
2022-11-03T01:31:12.943Z,1016.09
2022-11-03T01:32:12.889Z,1016.07
2022-11-03T01:33:14.193Z,1016.08
2022-11-03T01:34:14.222Z,1016.10
2022-11-03T01:35:13.131Z,1016.08
2022-11-03T01:36:13.088Z,1016.02
2022-11-03T01:37:13.077Z,1016.04
2022-11-03T01:38:13.209Z,1016.01
2022-11-03T01:39:13.212Z,1016.00
2022-11-03T01:40:13.298Z,1016.03
2022-11-03T01:41:13.156Z,1016.02
2022-11-03T01:42:13.168Z,1015.97
2022-11-03T01:43:13.288Z,1015.95
2022-11-03T01:44:13.195Z,1015.86
2022-11-03T01:45:13.113Z,1015.90
2022-11-03T01:46:13.017Z,1015.86
2022-11-03T01:47:13.003Z,1015.82
2022-11-03T01:48:13.168Z,1015.80
2022-11-03T01:49:13.483Z,1015.79
2022-11-03T01:50:13.752Z,1015.78
2022-11-03T01:51:13.699Z,1015.78
2022-11-03T01:52:13.559Z,1015.75
2022-11-03T01:53:13.392Z,1015.80
2022-11-03T01:54:13.639Z,1015.78
2022-11-03T01:55:13.589Z,1015.70
2022-11-03T01:56:13.480Z,1015.72
2022-11-03T01:57:13.375Z,1015.72
2022-11-03T01:58:13.337Z,1015.75
2022-11-03T01:59:13.373Z,1015.63
2022-11-03T02:00:13.358Z,1015.74
2022-11-03T02:01:13.508Z,1015.66
2022-11-03T02:02:13.601Z,1015.64
2022-11-03T02:03:13.565Z,1015.62
2022-11-03T02:04:13.466Z,1015.61
2022-11-03T02:05:13.369Z,1015.57
2022-11-03T02:06:13.311Z,1015.59
2022-11-03T02:07:13.614Z,1015.58
2022-11-03T02:08:13.505Z,1015.56
2022-11-03T02:09:13.447Z,1015.59
2022-11-03T02:10:13.461Z,1015.47
2022-11-03T02:11:13.359Z,1015.48
2022-11-03T02:12:13.490Z,1015.50
2022-11-03T02:13:13.457Z,1015.50
2022-11-03T02:14:13.752Z,1015.46
2022-11-03T02:15:13.618Z,1015.41
2022-11-03T02:16:13.521Z,1015.39
2022-11-03T02:17:13.397Z,1015.40
2022-11-03T02:18:13.281Z,1015.40
2022-11-03T02:19:13.160Z,1015.39
2022-11-03T02:20:13.199Z,1015.35
2022-11-03T02:21:13.280Z,1015.35
2022-11-03T02:22:13.983Z,1015.35
2022-11-03T02:23:12.940Z,1015.35
2022-11-03T02:24:12.826Z,1015.27
2022-11-03T02:25:13.843Z,1015.23
2022-11-03T02:26:13.788Z,1015.31
2022-11-03T02:27:13.664Z,1015.18
2022-11-03T02:28:13.567Z,1015.18
2022-11-03T02:29:13.633Z,1015.19
2022-11-03T02:30:13.626Z,1015.13
2022-11-03T02:31:13.731Z,1015.17
2022-11-03T02:32:14.045Z,1015.12
2022-11-03T02:33:13.178Z,1015.09
2022-11-03T02:34:13.098Z,1015.11
2022-11-03T02:35:13.089Z,1015.08
2022-11-03T02:36:13.127Z,1015.08
2022-11-03T02:37:13.007Z,1015.07
2022-11-03T02:38:17.388Z,1015.02
2022-11-03T02:39:13.224Z,1015.05
2022-11-03T02:40:13.444Z,1014.98
2022-11-03T02:41:13.449Z,1014.94
2022-11-03T02:42:13.249Z,1014.96
2022-11-03T02:43:13.435Z,1014.89
2022-11-03T02:44:13.455Z,1014.92
2022-11-03T02:45:17.305Z,1014.87
2022-11-03T02:46:14.008Z,1014.93
2022-11-03T02:47:13.301Z,1014.90
2022-11-03T02:48:13.223Z,1014.83
2022-11-03T02:49:13.526Z,1014.86
2022-11-03T02:50:13.433Z,1014.89
2022-11-03T02:51:13.626Z,1014.88
2022-11-03T02:52:13.773Z,1014.88
2022-11-03T02:53:13.584Z,1014.87
2022-11-03T02:54:13.762Z,1014.83
2022-11-03T02:55:15.884Z,1014.86
2022-11-03T02:56:13.794Z,1014.81
2022-11-03T02:57:13.875Z,1014.74
2022-11-03T02:58:14.080Z,1014.76
2022-11-03T02:59:12.985Z,1014.76
2022-11-03T03:00:42.603Z,1014.70
2022-11-03T03:01:13.737Z,1014.71
2022-11-03T03:02:13.750Z,1014.70
2022-11-03T03:03:13.740Z,1014.65
2022-11-03T03:04:13.848Z,1014.61
2022-11-03T03:05:13.745Z,1014.66
2022-11-03T03:06:28.761Z,1014.64
2022-11-03T03:07:13.598Z,1014.69
2022-11-03T03:08:13.673Z,1014.69
2022-11-03T03:09:13.502Z,1014.73
2022-11-03T03:10:13.716Z,1014.73
2022-11-03T03:11:13.627Z,1014.63
2022-11-03T03:12:13.599Z,1014.64
2022-11-03T03:13:13.941Z,1014.60
2022-11-03T03:14:12.982Z,1014.59
2022-11-03T03:15:12.900Z,1014.62
2022-11-03T03:16:12.910Z,1014.58
2022-11-03T03:17:12.843Z,1014.57
2022-11-03T03:18:14.561Z,1014.56
2022-11-03T03:19:13.692Z,1014.52
2022-11-03T03:20:14.210Z,1014.51
2022-11-03T03:21:13.144Z,1014.47
2022-11-03T03:22:13.205Z,1014.46
2022-11-03T03:23:13.342Z,1014.46
2022-11-03T03:24:13.872Z,1014.43
2022-11-03T03:25:14.029Z,1014.45
2022-11-03T03:26:13.162Z,1014.44
2022-11-03T03:27:13.157Z,1014.42
2022-11-03T03:28:13.350Z,1014.36
2022-11-03T03:29:13.439Z,1014.39
2022-11-03T03:30:13.483Z,1014.41
2022-11-03T03:31:13.755Z,1014.43
2022-11-03T03:32:13.643Z,1014.48
2022-11-03T03:33:13.908Z,1014.45
2022-11-03T03:34:33.409Z,1014.42
2022-11-03T03:35:12.920Z,1014.41
2022-11-03T03:36:12.963Z,1014.35
2022-11-03T03:37:12.791Z,1014.43
2022-11-03T03:38:13.781Z,1014.40
2022-11-03T03:39:13.662Z,1014.44
2022-11-03T03:40:13.594Z,1014.42
2022-11-03T03:41:13.645Z,1014.38
2022-11-03T03:42:13.527Z,1014.33
2022-11-03T03:43:13.528Z,1014.37
2022-11-03T03:44:13.390Z,1014.34
2022-11-03T03:45:13.288Z,1014.27
2022-11-03T03:46:13.665Z,1014.33
2022-11-03T03:47:14.081Z,1014.25
2022-11-03T03:48:13.000Z,1014.28
2022-11-03T03:49:12.913Z,1014.26
2022-11-03T03:50:12.826Z,1014.25
2022-11-03T03:51:14.041Z,1014.22
2022-11-03T03:52:13.271Z,1014.21
2022-11-03T03:53:13.225Z,1014.18
2022-11-03T03:54:13.105Z,1014.16
2022-11-03T03:55:13.151Z,1014.15
2022-11-03T03:56:13.029Z,1014.13
2022-11-03T03:57:12.900Z,1014.16
2022-11-03T03:58:12.686Z,1014.09
2022-11-03T03:59:13.653Z,1014.12
2022-11-03T04:00:13.646Z,1014.13
2022-11-03T04:01:13.647Z,1014.09
2022-11-03T04:02:13.694Z,1014.07
2022-11-03T04:03:13.820Z,1014.09
2022-11-03T04:04:13.857Z,1014.06
2022-11-03T04:05:13.999Z,1014.07
2022-11-03T04:06:13.192Z,1014.04
2022-11-03T04:07:13.396Z,1014.05
2022-11-03T04:08:13.646Z,1014.06
2022-11-03T04:09:13.940Z,1014.08
2022-11-03T04:10:12.873Z,1014.07
2022-11-03T04:12:41.466Z,1014.03
2022-11-03T04:13:13.308Z,1014.02
2022-11-03T04:14:13.551Z,1014.05
2022-11-03T04:15:13.479Z,1014.00
2022-11-03T04:17:13.056Z,1013.97
2022-11-03T04:18:13.135Z,1013.94
2022-11-03T04:19:13.607Z,1013.93
2022-11-03T04:20:13.556Z,1013.91
2022-11-03T04:22:31.139Z,1013.95
2022-11-03T04:23:13.592Z,1013.92
2022-11-03T04:24:14.194Z,1013.93
2022-11-03T04:25:13.088Z,1013.85
2022-11-03T04:27:14.180Z,1013.80
2022-11-03T04:28:13.028Z,1013.76
2022-11-03T04:29:13.267Z,1013.78
2022-11-03T04:30:13.504Z,1013.83
2022-11-03T04:32:13.497Z,1013.80
2022-11-03T04:34:13.254Z,1013.78
2022-11-03T04:35:29.473Z,1013.75
2022-11-03T04:36:13.675Z,1013.79
2022-11-03T04:38:36.975Z,1013.69
2022-11-03T04:39:13.127Z,1013.75
2022-11-03T04:40:13.025Z,1013.73
2022-11-03T04:41:13.048Z,1013.74
2022-11-03T04:42:29.242Z,1013.73
2022-11-03T04:43:28.762Z,1013.69
2022-11-03T04:44:13.718Z,1013.75
2022-11-03T04:45:13.665Z,1013.68
2022-11-03T04:46:13.504Z,1013.74
2022-11-03T04:47:44.499Z,1013.67
2022-11-03T04:48:13.601Z,1013.65
2022-11-03T04:49:13.665Z,1013.65
2022-11-03T04:51:25.456Z,1013.63
2022-11-03T04:52:13.611Z,1013.60
2022-11-03T04:53:14.076Z,1013.69
2022-11-03T04:54:38.038Z,1013.68
2022-11-03T04:55:12.939Z,1013.64
2022-11-03T04:56:13.568Z,1013.65
2022-11-03T04:57:13.506Z,1013.62
2022-11-03T04:58:26.707Z,1013.57
2022-11-03T04:59:13.662Z,1013.67
2022-11-03T05:00:19.022Z,1013.62
2022-11-03T05:01:13.289Z,1013.60
2022-11-03T05:02:13.631Z,1013.55
2022-11-03T05:03:13.545Z,1013.49
2022-11-03T05:04:13.758Z,1013.58
2022-11-03T05:05:13.833Z,1013.53
2022-11-03T05:06:13.691Z,1013.48
2022-11-03T05:07:14.078Z,1013.49
2022-11-03T05:08:13.262Z,1013.49
2022-11-03T05:09:13.238Z,1013.48
2022-11-03T05:10:13.142Z,1013.48
2022-11-03T05:11:12.973Z,1013.52
2022-11-03T05:12:12.797Z,1013.44
2022-11-03T05:13:14.009Z,1013.46
2022-11-03T05:14:12.983Z,1013.51
2022-11-03T05:15:12.820Z,1013.47
2022-11-03T05:16:13.728Z,1013.44
2022-11-03T05:17:13.868Z,1013.47
2022-11-03T05:18:13.928Z,1013.46
2022-11-03T05:19:12.881Z,1013.42
2022-11-03T05:20:13.824Z,1013.37
2022-11-03T05:21:13.930Z,1013.40
2022-11-03T05:22:12.899Z,1013.36
2022-11-03T05:23:13.143Z,1013.35
2022-11-03T05:25:13.238Z,1013.41
2022-11-03T05:26:13.120Z,1013.35
2022-11-03T05:27:12.945Z,1013.38
2022-11-03T05:28:12.859Z,1013.39
2022-11-03T05:29:13.746Z,1013.43
2022-11-03T05:30:13.617Z,1013.38
2022-11-03T05:31:18.543Z,1013.34
2022-11-03T05:32:13.548Z,1013.34
2022-11-03T05:33:13.670Z,1013.36
2022-11-03T05:34:13.907Z,1013.32
2022-11-03T05:35:13.044Z,1013.30
2022-11-03T05:36:12.989Z,1013.27
2022-11-03T05:37:12.828Z,1013.24
2022-11-03T05:38:14.110Z,1013.25
2022-11-03T05:39:13.126Z,1013.25
2022-11-03T05:40:12.937Z,1013.13
2022-11-03T05:41:12.937Z,1013.15
2022-11-03T05:42:12.814Z,1013.12
2022-11-03T05:43:14.079Z,1013.12
2022-11-03T05:44:13.007Z,1013.10
2022-11-03T05:45:12.915Z,1013.09
2022-11-03T05:46:12.858Z,1013.04
2022-11-03T05:47:13.879Z,1013.08
2022-11-03T05:48:13.883Z,1013.04
2022-11-03T05:49:14.116Z,1013.06
2022-11-03T05:50:13.137Z,1013.01
2022-11-03T05:51:13.210Z,1012.99
2022-11-03T05:52:13.093Z,1012.96
2022-11-03T05:53:18.098Z,1012.97
2022-11-03T05:54:17.047Z,1012.91
2022-11-03T05:55:13.813Z,1012.93
2022-11-03T05:56:13.712Z,1012.90
2022-11-03T05:57:13.640Z,1012.87
2022-11-03T05:58:13.639Z,1012.86
2022-11-03T05:59:13.929Z,1012.85
2022-11-03T06:00:12.873Z,1012.89
2022-11-03T06:01:15.028Z,1012.87
2022-11-03T06:02:13.198Z,1012.85
2022-11-03T06:03:13.373Z,1012.85
2022-11-03T06:04:13.312Z,1012.82
2022-11-03T06:05:13.221Z,1012.84
2022-11-03T06:06:33.424Z,1012.84
2022-11-03T06:07:13.752Z,1012.78
2022-11-03T06:08:13.820Z,1012.84
2022-11-03T06:09:13.910Z,1012.78
2022-11-03T06:10:13.020Z,1012.80
2022-11-03T06:11:12.884Z,1012.76
2022-11-03T06:12:13.823Z,1012.83
2022-11-03T06:13:13.699Z,1012.80
2022-11-03T06:14:13.508Z,1012.82
2022-11-03T06:15:13.500Z,1012.77
2022-11-03T06:16:13.320Z,1012.76
2022-11-03T06:17:14.267Z,1012.73
2022-11-03T06:18:13.528Z,1012.72
2022-11-03T06:19:23.610Z,1012.70
2022-11-03T06:20:14.234Z,1012.68
2022-11-03T06:21:13.143Z,1012.63
2022-11-03T06:22:13.705Z,1012.68
2022-11-03T06:23:13.634Z,1012.65
2022-11-03T06:24:13.930Z,1012.67
2022-11-03T06:25:12.927Z,1012.69
2022-11-03T06:26:12.961Z,1012.68
2022-11-03T06:27:12.952Z,1012.71
2022-11-03T06:28:13.070Z,1012.69
2022-11-03T06:29:13.047Z,1012.66
2022-11-03T06:30:13.085Z,1012.74
2022-11-03T06:31:12.958Z,1012.66
2022-11-03T06:32:12.824Z,1012.60
2022-11-03T06:33:13.770Z,1012.63
2022-11-03T06:34:13.736Z,1012.63
2022-11-03T06:35:13.858Z,1012.70
2022-11-03T06:36:13.794Z,1012.59
2022-11-03T06:37:13.792Z,1012.54
2022-11-03T06:38:13.656Z,1012.54
2022-11-03T06:39:13.834Z,1012.47
2022-11-03T06:40:13.764Z,1012.52
2022-11-03T06:41:13.698Z,1012.49
2022-11-03T06:42:13.621Z,1012.55
2022-11-03T06:43:13.793Z,1012.53
2022-11-03T06:44:14.043Z,1012.54
2022-11-03T06:45:13.405Z,1012.53
2022-11-03T06:46:13.957Z,1012.49
2022-11-03T06:47:14.914Z,1012.54
2022-11-03T06:48:13.461Z,1012.47
2022-11-03T06:49:14.525Z,1012.42
2022-11-03T06:50:13.774Z,1012.41
2022-11-03T06:51:14.221Z,1012.33
2022-11-03T06:52:13.995Z,1012.41
2022-11-03T06:53:14.840Z,1012.40
2022-11-03T06:54:13.833Z,1012.41
2022-11-03T06:55:16.946Z,1012.37
2022-11-03T06:56:13.333Z,1012.32
2022-11-03T06:57:13.279Z,1012.36
2022-11-03T06:58:13.159Z,1012.25
2022-11-03T06:59:12.964Z,1012.29
2022-11-03T07:00:33.101Z,1012.25
2022-11-03T07:01:13.715Z,1012.18
2022-11-03T07:02:14.232Z,1012.24
2022-11-03T07:03:13.343Z,1012.18
2022-11-03T07:04:13.388Z,1012.13
2022-11-03T07:05:13.841Z,1012.10
2022-11-03T07:06:13.894Z,1012.04
2022-11-03T07:07:12.898Z,1012.10
2022-11-03T07:08:12.900Z,1012.09
2022-11-03T07:09:12.758Z,1012.08
2022-11-03T07:10:13.645Z,1012.05
2022-11-03T07:11:14.234Z,1012.05
2022-11-03T07:12:13.202Z,1012.05
2022-11-03T07:13:18.277Z,1012.06
2022-11-03T07:14:13.145Z,1012.06
2022-11-03T07:15:13.373Z,1012.02
2022-11-03T07:16:16.206Z,1012.07
2022-11-03T07:17:13.884Z,1011.97
2022-11-03T07:18:19.147Z,1011.94
2022-11-03T07:19:13.209Z,1011.94
2022-11-03T07:20:13.473Z,1011.95
2022-11-03T07:21:13.351Z,1011.99
2022-11-03T07:22:13.235Z,1012.04
2022-11-03T07:23:13.155Z,1011.91
2022-11-03T07:24:13.143Z,1012.00
2022-11-03T07:25:13.259Z,1011.99
2022-11-03T07:26:13.129Z,1012.00
2022-11-03T07:27:13.524Z,1012.04
2022-11-03T07:28:13.427Z,1011.97
2022-11-03T07:29:13.231Z,1012.06
2022-11-03T07:30:13.171Z,1011.98
2022-11-03T07:31:16.240Z,1011.96
2022-11-03T07:32:13.694Z,1011.94
2022-11-03T07:33:13.852Z,1011.88
2022-11-03T07:34:13.755Z,1011.87
2022-11-03T07:35:13.904Z,1011.80
2022-11-03T07:36:17.875Z,1011.89
2022-11-03T07:37:14.097Z,1011.86
2022-11-03T07:38:13.147Z,1011.83
2022-11-03T07:39:12.983Z,1011.87
2022-11-03T07:40:14.606Z,1011.81
2022-11-03T07:41:13.579Z,1011.79
2022-11-03T07:42:13.754Z,1011.78
2022-11-03T07:43:14.008Z,1011.73
2022-11-03T07:44:12.959Z,1011.76
2022-11-03T07:45:12.947Z,1011.72
2022-11-03T07:46:13.096Z,1011.74
2022-11-03T07:47:13.130Z,1011.77
2022-11-03T07:48:13.030Z,1011.71
2022-11-03T07:49:13.127Z,1011.66
2022-11-03T07:50:12.954Z,1011.72
2022-11-03T07:51:13.160Z,1011.71
2022-11-03T07:52:12.985Z,1011.72
2022-11-03T07:53:13.284Z,1011.73
2022-11-03T07:54:13.276Z,1011.73
2022-11-03T07:55:13.148Z,1011.73
2022-11-03T07:56:13.082Z,1011.68
2022-11-03T07:57:13.392Z,1011.66
2022-11-03T07:58:13.323Z,1011.71
2022-11-03T07:59:13.434Z,1011.66
2022-11-03T08:00:13.467Z,1011.70
2022-11-03T08:01:13.472Z,1011.56
2022-11-03T08:02:13.610Z,1011.60
2022-11-03T08:03:13.786Z,1011.62
2022-11-03T08:04:13.847Z,1011.56
2022-11-03T08:05:14.129Z,1011.52
2022-11-03T08:06:14.701Z,1011.51
2022-11-03T08:07:13.277Z,1011.50
2022-11-03T08:08:13.122Z,1011.45
2022-11-03T08:09:13.131Z,1011.41
2022-11-03T08:10:13.074Z,1011.42
2022-11-03T08:12:13.016Z,1011.40
2022-11-03T08:13:12.899Z,1011.37
2022-11-03T08:14:13.239Z,1011.37
2022-11-03T08:16:33.160Z,1011.30
2022-11-03T08:17:13.321Z,1011.36
2022-11-03T08:18:13.367Z,1011.39
2022-11-03T08:19:50.224Z,1011.35
2022-11-03T08:20:13.716Z,1011.33
2022-11-03T08:21:13.794Z,1011.34
2022-11-03T08:22:13.905Z,1011.26
2022-11-03T08:23:25.241Z,1011.28
2022-11-03T08:24:13.289Z,1011.20
2022-11-03T08:25:13.097Z,1011.20
2022-11-03T08:26:28.812Z,1011.23
2022-11-03T08:27:14.258Z,1011.20
2022-11-03T08:28:18.675Z,1011.22
2022-11-03T08:29:13.621Z,1011.23
2022-11-03T08:30:37.227Z,1011.21
2022-11-03T08:31:13.539Z,1011.13
2022-11-03T08:32:13.806Z,1011.17
2022-11-03T08:33:14.148Z,1011.16
2022-11-03T08:34:13.025Z,1011.18
2022-11-03T08:35:18.144Z,1011.13
2022-11-03T08:36:18.452Z,1011.09
2022-11-03T08:37:13.611Z,1011.16
2022-11-03T08:38:13.654Z,1011.12
2022-11-03T08:39:13.761Z,1011.08
2022-11-03T08:40:13.753Z,1011.09
2022-11-03T08:41:14.040Z,1010.98
2022-11-03T08:42:12.983Z,1011.05
2022-11-03T08:43:12.900Z,1011.04
2022-11-03T08:44:12.929Z,1011.02
2022-11-03T08:45:12.968Z,1011.01
2022-11-03T08:46:17.707Z,1011.04
2022-11-03T08:47:13.353Z,1011.00
2022-11-03T08:48:13.443Z,1011.07
2022-11-03T08:49:33.751Z,1011.05
2022-11-03T08:50:43.885Z,1010.96
2022-11-03T08:51:13.059Z,1010.94
2022-11-03T08:53:18.574Z,1011.00
2022-11-03T08:54:13.880Z,1010.99
2022-11-03T08:56:16.184Z,1010.97
2022-11-03T08:57:13.106Z,1010.89
2022-11-03T08:58:13.189Z,1010.90
2022-11-03T08:59:14.760Z,1011.00
2022-11-03T09:00:13.771Z,1010.92
2022-11-03T09:01:14.181Z,1010.91
2022-11-03T09:02:13.179Z,1010.95
2022-11-03T09:03:13.321Z,1010.96
2022-11-03T09:04:13.306Z,1010.95
2022-11-03T09:05:13.255Z,1010.93
2022-11-03T09:06:13.450Z,1010.97
2022-11-03T09:07:13.788Z,1010.95
2022-11-03T09:10:22.207Z,1010.88
2022-11-03T09:11:12.806Z,1010.84
2022-11-03T09:12:13.932Z,1010.85
2022-11-03T09:13:12.865Z,1010.74
2022-11-03T09:14:13.853Z,1010.82
2022-11-03T09:15:13.230Z,1010.78
2022-11-03T09:16:13.135Z,1010.78
2022-11-03T09:17:13.253Z,1010.75
2022-11-03T09:18:13.163Z,1010.69
2022-11-03T09:19:13.436Z,1010.76
2022-11-03T09:20:13.452Z,1010.76
2022-11-03T09:21:13.691Z,1010.65
2022-11-03T09:22:14.116Z,1010.69
2022-11-03T09:23:13.344Z,1010.59
2022-11-03T09:24:13.660Z,1010.60
2022-11-03T09:25:13.746Z,1010.61
2022-11-03T09:26:13.727Z,1010.61
2022-11-03T09:27:13.747Z,1010.59
2022-11-03T09:28:13.918Z,1010.57
2022-11-03T09:29:13.038Z,1010.55
2022-11-03T09:30:14.386Z,1010.59
2022-11-03T09:31:13.826Z,1010.50
2022-11-03T09:32:23.761Z,1010.56
2022-11-03T09:33:13.063Z,1010.49
2022-11-03T09:34:12.923Z,1010.46
2022-11-03T09:35:12.920Z,1010.39
2022-11-03T09:36:12.958Z,1010.36
2022-11-03T09:37:12.961Z,1010.32
2022-11-03T09:38:13.695Z,1010.29
2022-11-03T09:39:13.887Z,1010.35
2022-11-03T09:40:13.097Z,1010.27
2022-11-03T09:41:25.026Z,1010.25
2022-11-03T09:42:13.251Z,1010.18
2022-11-03T09:43:13.473Z,1010.27
2022-11-03T09:44:13.361Z,1010.20
2022-11-03T09:45:13.299Z,1010.25
2022-11-03T09:46:13.474Z,1010.12
2022-11-03T09:47:13.987Z,1010.17
2022-11-03T09:48:13.880Z,1010.15
2022-11-03T09:49:12.870Z,1010.08
2022-11-03T09:50:14.322Z,1010.04
2022-11-03T09:51:13.329Z,1010.04
2022-11-03T09:52:13.269Z,1009.95
2022-11-03T09:53:13.398Z,1009.92
2022-11-03T09:54:13.306Z,1009.86
2022-11-03T09:55:13.370Z,1009.72
2022-11-03T09:56:13.409Z,1009.88
2022-11-03T09:57:13.311Z,1009.83
2022-11-03T09:58:13.253Z,1009.78
2022-11-03T09:59:13.699Z,1009.86
2022-11-03T10:00:13.644Z,1009.86
2022-11-03T10:01:13.893Z,1009.86
2022-11-03T10:02:13.027Z,1009.80
2022-11-03T10:03:13.294Z,1009.85
2022-11-03T10:05:13.038Z,1009.71
2022-11-03T10:06:15.509Z,1009.64
2022-11-03T10:07:13.681Z,1009.71
2022-11-03T10:08:17.022Z,1009.73
2022-11-03T10:09:13.325Z,1009.73
2022-11-03T10:10:13.274Z,1009.66
2022-11-03T10:11:13.329Z,1009.71
2022-11-03T10:12:21.678Z,1009.69
2022-11-03T10:13:13.736Z,1009.71
2022-11-03T10:14:13.954Z,1009.67
2022-11-03T10:15:12.853Z,1009.72
2022-11-03T10:16:13.854Z,1009.62
2022-11-03T10:17:13.830Z,1009.73
2022-11-03T10:18:14.159Z,1009.68
2022-11-03T10:19:13.083Z,1009.62
2022-11-03T10:20:13.202Z,1009.60
2022-11-03T10:21:13.154Z,1009.52
2022-11-03T10:22:26.982Z,1009.58
2022-11-03T10:23:12.973Z,1009.55
2022-11-03T10:24:12.863Z,1009.52
2022-11-03T10:25:23.982Z,1009.53
2022-11-03T10:26:28.655Z,1009.49
2022-11-03T10:27:13.578Z,1009.51
2022-11-03T10:28:14.857Z,1009.53
2022-11-03T10:29:13.294Z,1009.46
2022-11-03T10:30:13.264Z,1009.47
2022-11-03T10:31:18.445Z,1009.26
2022-11-03T10:32:13.352Z,1009.38
2022-11-03T10:33:14.387Z,1009.28
2022-11-03T10:34:13.661Z,1009.25
2022-11-03T10:35:13.498Z,1009.20
2022-11-03T10:36:13.489Z,1009.11
2022-11-03T10:37:14.686Z,1009.10
2022-11-03T10:38:38.991Z,1009.10
2022-11-03T10:39:12.923Z,1009.09
2022-11-03T10:40:22.395Z,1009.11
2022-11-03T10:41:18.338Z,1009.01
2022-11-03T10:42:13.373Z,1008.99
2022-11-03T10:43:13.438Z,1008.84
2022-11-03T10:44:13.450Z,1008.64
2022-11-03T10:45:13.454Z,1008.74
2022-11-03T10:46:29.744Z,1008.76
2022-11-03T10:47:13.851Z,1008.73
2022-11-03T10:48:14.152Z,1008.71
2022-11-03T10:49:13.516Z,1008.72
2022-11-03T10:50:13.813Z,1008.76
2022-11-03T10:51:13.815Z,1008.72
2022-11-03T10:52:14.047Z,1008.77
2022-11-03T10:53:13.232Z,1008.67
2022-11-03T10:54:18.480Z,1008.72
2022-11-03T10:55:13.519Z,1008.66
2022-11-03T10:56:14.109Z,1008.55
2022-11-03T10:57:13.211Z,1008.54
2022-11-03T10:58:13.285Z,1008.47
2022-11-03T10:59:13.420Z,1008.55
2022-11-03T11:00:13.489Z,1008.48
2022-11-03T11:01:13.738Z,1008.52
2022-11-03T11:02:14.032Z,1008.40
2022-11-03T11:03:16.445Z,1008.56
2022-11-03T11:04:14.031Z,1008.57
2022-11-03T11:05:13.070Z,1008.53
2022-11-03T11:06:13.101Z,1008.54
2022-11-03T11:07:13.274Z,1008.49
2022-11-03T11:08:13.384Z,1008.51
2022-11-03T11:09:13.352Z,1008.47
2022-11-03T11:10:13.220Z,1008.37
2022-11-03T11:11:18.283Z,1008.41
2022-11-03T11:12:13.705Z,1008.45
2022-11-03T11:13:13.549Z,1008.42
2022-11-03T11:14:18.487Z,1008.44
2022-11-03T11:15:13.509Z,1008.30
2022-11-03T11:16:13.362Z,1008.26
2022-11-03T11:17:13.575Z,1008.10
2022-11-03T11:18:13.909Z,1008.13
2022-11-03T11:19:12.873Z,1008.13
2022-11-03T11:20:13.813Z,1008.13
2022-11-03T11:21:13.700Z,1007.98
2022-11-03T11:22:13.684Z,1008.00
2022-11-03T11:23:13.952Z,1007.87
2022-11-03T11:24:12.914Z,1007.92
2022-11-03T11:25:12.788Z,1007.96
2022-11-03T11:26:14.063Z,1007.95
2022-11-03T11:27:14.226Z,1008.00
2022-11-03T11:28:13.083Z,1007.89
2022-11-03T11:29:13.002Z,1007.91
2022-11-03T11:30:17.866Z,1007.79
2022-11-03T11:31:14.099Z,1007.89
2022-11-03T11:32:12.901Z,1007.90
2022-11-03T11:33:12.809Z,1007.80
2022-11-03T11:34:13.697Z,1007.85
2022-11-03T11:35:13.770Z,1007.84
2022-11-03T11:36:13.870Z,1007.91
2022-11-03T11:37:13.941Z,1007.89
2022-11-03T11:38:12.908Z,1007.90
2022-11-03T11:39:13.061Z,1007.84
2022-11-03T11:40:13.032Z,1007.77
2022-11-03T11:41:12.945Z,1007.76
2022-11-03T11:42:13.446Z,1007.67
2022-11-03T11:43:14.106Z,1007.73
2022-11-03T11:44:13.202Z,1007.65
2022-11-03T11:45:13.282Z,1007.53
2022-11-03T11:46:13.701Z,1007.52
2022-11-03T11:47:14.200Z,1007.46
2022-11-03T11:48:18.399Z,1007.50
2022-11-03T11:49:12.825Z,1007.45
2022-11-03T11:50:13.739Z,1007.58
2022-11-03T11:51:14.155Z,1007.48
2022-11-03T11:52:18.738Z,1007.43
2022-11-03T11:53:13.026Z,1007.49
2022-11-03T11:54:18.143Z,1007.45
2022-11-03T11:55:13.604Z,1007.50
2022-11-03T11:56:13.514Z,1007.46
2022-11-03T11:57:13.454Z,1007.53
2022-11-03T11:58:13.480Z,1007.50
2022-11-03T11:59:13.441Z,1007.46
2022-11-03T12:00:13.579Z,1007.49
2022-11-03T12:01:13.579Z,1007.47
2022-11-03T12:02:13.702Z,1007.48
2022-11-03T12:03:13.926Z,1007.43
2022-11-03T12:04:12.918Z,1007.41
2022-11-03T12:05:12.918Z,1007.39
2022-11-03T12:06:12.945Z,1007.34
2022-11-03T12:07:13.114Z,1007.29
2022-11-03T12:08:13.138Z,1007.27
2022-11-03T12:09:13.158Z,1007.23
2022-11-03T12:10:13.374Z,1007.25
2022-11-03T12:11:13.420Z,1007.31
2022-11-03T12:12:13.582Z,1007.26
2022-11-03T12:13:18.746Z,1007.28
2022-11-03T12:14:13.728Z,1007.30
2022-11-03T12:15:13.651Z,1007.41
2022-11-03T12:16:13.738Z,1007.32
2022-11-03T12:17:13.785Z,1007.33
2022-11-03T12:18:13.804Z,1007.28
2022-11-03T12:19:13.706Z,1007.24
2022-11-03T12:20:13.617Z,1007.25
2022-11-03T12:21:13.713Z,1007.19